Time;durP1;ratioP1;P1;durP2;ratioP2;P2;SDS_P1;SDS_P2;PMS_P1;PMS_P2;Temp;Humidity;BMP_temperature;BMP_pressure;BME280_temperature;BME280_humidity;BME280_pressure;Samples;Min_cycle;Max_cycle;Signal;HPM_P1;HPM_P2
2022/12/02 00:00:42;;;;;;;;;;;9.40;60.30;;;;;;4994196;28;19940;-88
2022/12/02 00:03:11;;;;;;;;;;;9.50;60.30;;;;;;5012548;28;20453;-88
2022/12/02 00:05:40;;;;;;;;;;;9.40;60.30;;;;;;4994543;28;20174;-87
2022/12/02 00:08:19;;;;;;;;;;;9.40;60.40;;;;;;4995146;28;19917;-87
2022/12/02 00:10:45;;;;;;;;;;;9.40;60.60;;;;;;4994856;28;20612;-88
2022/12/02 00:13:20;;;;;;;;;;;9.50;60.60;;;;;;4995004;28;20440;-88
2022/12/02 00:15:48;;;;;;;;;;;9.50;60.40;;;;;;5012733;28;19921;-89
2022/12/02 00:18:15;;;;;;;;;;;9.50;60.20;;;;;;4993060;28;19913;-87
2022/12/02 00:20:41;;;;;;;;;;;9.50;60.20;;;;;;4975358;28;19961;-89
2022/12/02 00:23:09;;;;;;;;;;;9.40;60.30;;;;;;4992910;28;19918;-87
2022/12/02 00:25:35;;;;;;;;;;;9.50;60.40;;;;;;4992727;28;19957;-87
2022/12/02 00:28:00;;;;;;;;;;;9.50;60.30;;;;;;4992398;28;20173;-88
2022/12/02 00:30:26;;;;;;;;;;;9.50;60.10;;;;;;4991012;28;20001;-90
2022/12/02 00:32:51;;;;;;;;;;;9.50;60.30;;;;;;4976369;28;19928;-88
2022/12/02 00:35:17;;;;;;;;;;;9.50;60.20;;;;;;4995319;28;20296;-89
2022/12/02 00:37:43;;;;;;;;;;;9.40;60.20;;;;;;4992388;28;20384;-88
2022/12/02 00:40:11;;;;;;;;;;;9.50;60.40;;;;;;4993894;28;19964;-89
2022/12/02 00:42:37;;;;;;;;;;;9.50;60.50;;;;;;4998954;28;19925;-88
2022/12/02 00:47:47;;;;;;;;;;;9.40;60.10;;;;;;5002660;28;20064;-88
2022/12/02 00:50:12;;;;;;;;;;;9.40;60.30;;;;;;4990868;28;20020;-88
2022/12/02 00:52:38;;;;;;;;;;;9.40;60.40;;;;;;4988276;28;19921;-88
2022/12/02 00:55:03;;;;;;;;;;;9.40;60.30;;;;;;5005250;28;19961;-90
2022/12/02 00:57:29;;;;;;;;;;;9.40;60.20;;;;;;4974685;28;19909;-87
2022/12/02 00:59:55;;;;;;;;;;;9.40;60.20;;;;;;4982302;28;20379;-89
2022/12/02 01:02:20;;;;;;;;;;;9.40;60.30;;;;;;4981593;28;20365;-88
2022/12/02 01:04:46;;;;;;;;;;;9.40;60.20;;;;;;4995511;28;19913;-89
2022/12/02 01:07:13;;;;;;;;;;;9.40;60.20;;;;;;5010863;28;19945;-89
2022/12/02 01:09:39;;;;;;;;;;;9.40;60.30;;;;;;5011305;28;19910;-88
2022/12/02 01:12:05;;;;;;;;;;;9.40;60.20;;;;;;4993756;28;19924;-89
2022/12/02 01:14:30;;;;;;;;;;;9.40;60.20;;;;;;4993677;28;20534;-89
2022/12/02 01:16:56;;;;;;;;;;;9.40;60.00;;;;;;4993416;28;19924;-89
2022/12/02 01:19:21;;;;;;;;;;;9.40;59.80;;;;;;5011402;28;19992;-90
2022/12/02 01:21:47;;;;;;;;;;;9.40;59.90;;;;;;5011305;28;20372;-89
2022/12/02 01:24:12;;;;;;;;;;;9.40;60.00;;;;;;5011303;28;20032;-90
2022/12/02 01:26:38;;;;;;;;;;;9.40;60.20;;;;;;4993702;28;20285;-88
2022/12/02 01:29:03;;;;;;;;;;;9.40;60.40;;;;;;5011263;28;20376;-89
2022/12/02 01:31:29;;;;;;;;;;;9.40;60.10;;;;;;4994213;28;19913;-88
2022/12/02 01:33:54;;;;;;;;;;;9.40;60.10;;;;;;4997937;28;19929;-88
2022/12/02 01:36:20;;;;;;;;;;;9.40;60.10;;;;;;4993335;28;20419;-89
2022/12/02 01:38:46;;;;;;;;;;;9.40;60.00;;;;;;4993507;28;19913;-89
2022/12/02 01:41:11;;;;;;;;;;;9.30;60.00;;;;;;4994840;28;19917;-87
2022/12/02 01:43:37;;;;;;;;;;;9.30;60.20;;;;;;5009065;28;20372;-88
2022/12/02 01:46:02;;;;;;;;;;;9.30;60.00;;;;;;4992833;28;19917;-88
2022/12/02 01:48:28;;;;;;;;;;;9.30;60.10;;;;;;5011257;28;19948;-89
2022/12/02 01:50:57;;;;;;;;;;;9.30;60.00;;;;;;4993396;28;19922;-88
2022/12/02 01:53:22;;;;;;;;;;;9.30;60.00;;;;;;4991312;28;19945;-88
2022/12/02 01:55:48;;;;;;;;;;;9.20;60.00;;;;;;4991235;28;19918;-89
2022/12/02 01:58:15;;;;;;;;;;;9.20;59.90;;;;;;4991369;28;20467;-88
2022/12/02 02:00:41;;;;;;;;;;;9.20;60.10;;;;;;4994699;28;19918;-88
2022/12/02 02:03:06;;;;;;;;;;;9.10;60.00;;;;;;4974478;28;20415;-89
2022/12/02 02:05:32;;;;;;;;;;;9.10;60.30;;;;;;4980342;28;19917;-88
2022/12/02 02:08:01;;;;;;;;;;;9.20;60.50;;;;;;4993172;28;19922;-89
2022/12/02 02:10:27;;;;;;;;;;;9.20;60.60;;;;;;4993227;28;20015;-89
2022/12/02 02:12:52;;;;;;;;;;;9.20;60.50;;;;;;4995603;28;19965;-89
2022/12/02 02:15:19;;;;;;;;;;;9.20;60.60;;;;;;4982943;28;19960;-87
2022/12/02 02:17:45;;;;;;;;;;;9.20;60.60;;;;;;4991130;28;20024;-88
2022/12/02 02:20:14;;;;;;;;;;;9.20;60.60;;;;;;4990225;28;19936;-87
2022/12/02 02:22:49;;;;;;;;;;;9.20;60.60;;;;;;4994491;28;19914;-88
2022/12/02 02:25:15;;;;;;;;;;;9.20;60.60;;;;;;5012233;28;19918;-89
2022/12/02 02:27:42;;;;;;;;;;;9.20;60.40;;;;;;4992514;28;19914;-88
2022/12/02 02:30:08;;;;;;;;;;;9.20;60.50;;;;;;4979080;28;19913;-89
2022/12/02 02:32:33;;;;;;;;;;;9.20;60.40;;;;;;4982982;28;20444;-89
2022/12/02 02:34:59;;;;;;;;;;;9.20;60.20;;;;;;4994363;28;20459;-89
2022/12/02 02:37:25;;;;;;;;;;;9.20;60.10;;;;;;5022948;28;19932;-89
2022/12/02 02:39:51;;;;;;;;;;;9.10;60.20;;;;;;5000865;28;20280;-89
2022/12/02 02:42:16;;;;;;;;;;;9.10;60.30;;;;;;4985533;28;19918;-87
2022/12/02 02:44:42;;;;;;;;;;;9.10;60.40;;;;;;4986951;28;19913;-89
2022/12/02 02:47:08;;;;;;;;;;;9.10;60.30;;;;;;4982539;28;19926;-88
2022/12/02 02:49:33;;;;;;;;;;;9.10;60.30;;;;;;5011315;28;19971;-88
2022/12/02 02:51:59;;;;;;;;;;;9.10;60.30;;;;;;4987820;28;19918;-89
2022/12/02 02:54:24;;;;;;;;;;;9.10;60.40;;;;;;5004508;28;19933;-88
2022/12/02 02:56:50;;;;;;;;;;;9.10;60.50;;;;;;4993526;28;19921;-89
2022/12/02 02:59:15;;;;;;;;;;;9.10;60.40;;;;;;5006834;28;19972;-88
2022/12/02 03:01:43;;;;;;;;;;;9.10;60.00;;;;;;4988966;28;20443;-88
2022/12/02 03:04:10;;;;;;;;;;;9.10;60.10;;;;;;4986809;28;19913;-88
2022/12/02 03:06:36;;;;;;;;;;;9.10;60.30;;;;;;4992487;28;20374;-88
2022/12/02 03:09:03;;;;;;;;;;;9.10;60.20;;;;;;4981279;28;19914;-89
2022/12/02 03:11:29;;;;;;;;;;;9.00;60.20;;;;;;4991438;28;20503;-89
2022/12/02 03:13:55;;;;;;;;;;;9.00;60.20;;;;;;4995612;28;20003;-88
2022/12/02 03:16:21;;;;;;;;;;;9.00;60.00;;;;;;4991834;28;20499;-88
2022/12/02 03:18:47;;;;;;;;;;;9.00;60.10;;;;;;4994648;28;19925;-89
2022/12/02 03:21:15;;;;;;;;;;;8.90;60.10;;;;;;4979974;28;19918;-89
2022/12/02 03:23:41;;;;;;;;;;;9.00;60.40;;;;;;5013613;28;19910;-88
2022/12/02 03:26:06;;;;;;;;;;;9.00;60.30;;;;;;5013194;28;19917;-88
2022/12/02 03:28:32;;;;;;;;;;;9.00;60.30;;;;;;5013617;28;19910;-89
2022/12/02 03:30:58;;;;;;;;;;;9.00;60.20;;;;;;5012015;28;19924;-88
2022/12/02 03:33:24;;;;;;;;;;;8.90;60.10;;;;;;4998327;28;19917;-89
2022/12/02 03:35:50;;;;;;;;;;;8.90;60.10;;;;;;5033139;28;19972;-88
2022/12/02 03:38:16;;;;;;;;;;;8.90;60.30;;;;;;4994776;28;20280;-87
2022/12/02 03:40:41;;;;;;;;;;;8.90;60.30;;;;;;4991802;28;19922;-88
2022/12/02 03:43:07;;;;;;;;;;;8.90;60.20;;;;;;4993074;28;20042;-86
2022/12/02 03:45:34;;;;;;;;;;;8.90;60.30;;;;;;4997844;28;20297;-88
2022/12/02 03:48:00;;;;;;;;;;;8.90;60.20;;;;;;4998921;28;19913;-89
2022/12/02 03:50:25;;;;;;;;;;;8.90;60.10;;;;;;4989201;28;20613;-88
2022/12/02 03:52:51;;;;;;;;;;;8.80;60.20;;;;;;4994850;28;19918;-88
2022/12/02 03:55:16;;;;;;;;;;;8.80;60.20;;;;;;4995354;28;19989;-88
2022/12/02 03:57:42;;;;;;;;;;;8.80;60.30;;;;;;4994836;28;19916;-89
2022/12/02 04:00:09;;;;;;;;;;;8.80;60.30;;;;;;4994958;28;19913;-88
2022/12/02 04:02:35;;;;;;;;;;;8.80;60.40;;;;;;4994964;28;20360;-88
2022/12/02 04:05:00;;;;;;;;;;;8.80;60.40;;;;;;4997299;28;19917;-89
2022/12/02 04:07:26;;;;;;;;;;;8.80;60.30;;;;;;5014003;28;19925;-88
2022/12/02 04:09:51;;;;;;;;;;;8.70;60.30;;;;;;4994810;28;19909;-89
2022/12/02 04:12:17;;;;;;;;;;;8.70;60.40;;;;;;4995232;28;19926;-88
2022/12/02 04:14:42;;;;;;;;;;;8.80;60.40;;;;;;4994526;28;19948;-88
2022/12/02 04:17:08;;;;;;;;;;;8.80;60.50;;;;;;4990191;28;19917;-89
2022/12/02 04:19:34;;;;;;;;;;;8.80;60.50;;;;;;4994623;28;19928;-88
2022/12/02 04:21:59;;;;;;;;;;;8.80;60.30;;;;;;4981599;28;19924;-88
2022/12/02 04:24:25;;;;;;;;;;;8.80;60.30;;;;;;4987497;28;20012;-88
2022/12/02 04:26:50;;;;;;;;;;;8.80;60.00;;;;;;4997407;28;19940;-90
2022/12/02 04:29:16;;;;;;;;;;;8.70;60.10;;;;;;5001124;28;19913;-87
2022/12/02 04:31:41;;;;;;;;;;;8.80;60.30;;;;;;4981467;28;20316;-87
2022/12/02 04:34:07;;;;;;;;;;;8.80;60.30;;;;;;5013085;28;19921;-89
2022/12/02 04:36:32;;;;;;;;;;;8.70;60.10;;;;;;4994649;28;19918;-88
2022/12/02 04:38:58;;;;;;;;;;;8.70;60.10;;;;;;4995137;28;19957;-88
2022/12/02 04:41:23;;;;;;;;;;;8.70;60.00;;;;;;5011903;28;19932;-88
2022/12/02 04:43:49;;;;;;;;;;;8.70;60.10;;;;;;5000906;28;20421;-88
2022/12/02 04:46:14;;;;;;;;;;;8.70;60.20;;;;;;5015797;28;20489;-88
2022/12/02 04:48:40;;;;;;;;;;;8.70;60.30;;;;;;4986004;28;19913;-87
2022/12/02 04:51:05;;;;;;;;;;;8.70;60.10;;;;;;4996473;28;19917;-89
2022/12/02 04:53:31;;;;;;;;;;;8.70;60.00;;;;;;4984006;28;20472;-89
2022/12/02 04:55:56;;;;;;;;;;;8.70;60.10;;;;;;4993901;28;20292;-90
2022/12/02 04:58:22;;;;;;;;;;;8.70;60.10;;;;;;4995425;28;19933;-88
2022/12/02 05:00:47;;;;;;;;;;;8.70;60.00;;;;;;4993467;28;19925;-90
2022/12/02 05:03:13;;;;;;;;;;;8.70;60.00;;;;;;5005015;28;20008;-87
2022/12/02 05:05:38;;;;;;;;;;;8.60;60.10;;;;;;4974759;28;20004;-89
2022/12/02 05:08:04;;;;;;;;;;;8.60;59.80;;;;;;4976093;28;19910;-89
2022/12/02 05:10:30;;;;;;;;;;;8.60;59.90;;;;;;5021013;28;19924;-88
2022/12/02 05:12:55;;;;;;;;;;;8.50;60.00;;;;;;5030031;28;19917;-89
2022/12/02 05:15:21;;;;;;;;;;;8.60;60.10;;;;;;5013484;28;19913;-89
2022/12/02 05:17:46;;;;;;;;;;;8.60;60.30;;;;;;5021096;28;19913;-88
2022/12/02 05:20:12;;;;;;;;;;;8.60;60.10;;;;;;4994291;28;20434;-89
2022/12/02 05:22:37;;;;;;;;;;;8.60;60.00;;;;;;4994498;28;19917;-88
2022/12/02 05:25:03;;;;;;;;;;;8.60;60.10;;;;;;5009683;28;19909;-87
2022/12/02 05:27:29;;;;;;;;;;;8.60;60.10;;;;;;4973980;28;20388;-88
2022/12/02 05:29:54;;;;;;;;;;;8.60;60.00;;;;;;4974240;28;20015;-90
2022/12/02 05:32:20;;;;;;;;;;;8.60;60.10;;;;;;4991534;28;19918;-89
2022/12/02 05:34:45;;;;;;;;;;;8.60;59.80;;;;;;4990114;28;19914;-88
2022/12/02 05:37:11;;;;;;;;;;;8.50;59.90;;;;;;4974875;28;19961;-88
2022/12/02 05:39:37;;;;;;;;;;;8.60;60.00;;;;;;5011249;28;19924;-90
2022/12/02 05:42:05;;;;;;;;;;;8.50;59.90;;;;;;4993670;28;19920;-88
2022/12/02 05:44:32;;;;;;;;;;;8.60;60.00;;;;;;4993563;28;20419;-89
2022/12/02 05:47:00;;;;;;;;;;;8.60;60.00;;;;;;5007474;28;20491;-88
2022/12/02 05:49:25;;;;;;;;;;;8.60;59.90;;;;;;5011177;28;19956;-89
2022/12/02 05:51:55;;;;;;;;;;;8.60;59.80;;;;;;5000497;28;19944;-89
2022/12/02 05:54:21;;;;;;;;;;;8.50;60.00;;;;;;4976907;28;19933;-88
2022/12/02 05:56:47;;;;;;;;;;;8.60;59.70;;;;;;4987021;28;20485;-89
2022/12/02 05:59:18;;;;;;;;;;;8.50;59.60;;;;;;4997129;28;19941;-88
2022/12/02 06:01:54;;;;;;;;;;;8.60;59.70;;;;;;4994186;28;19917;-90
2022/12/02 06:04:19;;;;;;;;;;;8.50;59.70;;;;;;4996913;28;20004;-87
2022/12/02 06:06:45;;;;;;;;;;;8.50;59.80;;;;;;4982298;28;19956;-89
2022/12/02 06:09:15;;;;;;;;;;;8.50;59.70;;;;;;5014953;28;19909;-89
2022/12/02 06:11:42;;;;;;;;;;;8.50;59.70;;;;;;4997167;28;20387;-88
2022/12/02 06:14:30;;;;;;;;;;;8.50;59.70;;;;;;4997195;28;19921;-88
2022/12/02 06:16:57;;;;;;;;;;;8.50;59.80;;;;;;4996804;28;19922;-89
2022/12/02 06:19:34;;;;;;;;;;;8.50;59.90;;;;;;5015407;28;19948;-88
2022/12/02 06:22:00;;;;;;;;;;;8.50;60.00;;;;;;4997112;28;19918;-88
2022/12/02 06:24:31;;;;;;;;;;;8.50;59.90;;;;;;4996901;28;19921;-89
2022/12/02 06:26:59;;;;;;;;;;;8.50;59.80;;;;;;4997053;28;19918;-88
2022/12/02 06:29:26;;;;;;;;;;;8.40;59.70;;;;;;4992240;28;19920;-88
2022/12/02 06:31:52;;;;;;;;;;;8.50;59.40;;;;;;4993856;28;20344;-88
2022/12/02 06:34:22;;;;;;;;;;;8.40;59.70;;;;;;4998783;28;19971;-88
2022/12/02 06:36:47;;;;;;;;;;;8.40;59.60;;;;;;4997949;28;20257;-88
2022/12/02 06:39:20;;;;;;;;;;;8.40;59.60;;;;;;4994780;28;20297;-89
2022/12/02 06:41:46;;;;;;;;;;;8.40;59.60;;;;;;5003350;28;19972;-87
2022/12/02 06:46:59;;;;;;;;;;;8.30;59.70;;;;;;5011883;28;20665;-88
2022/12/02 06:49:32;;;;;;;;;;;8.20;59.70;;;;;;5007873;28;20012;-86
2022/12/02 06:52:00;;;;;;;;;;;8.20;59.70;;;;;;4997468;28;19926;-88
2022/12/02 06:54:28;;;;;;;;;;;8.20;59.90;;;;;;4989931;28;19933;-88
2022/12/02 06:56:54;;;;;;;;;;;8.20;59.90;;;;;;4991535;28;19921;-88
2022/12/02 06:59:22;;;;;;;;;;;8.20;59.90;;;;;;5010257;28;19914;-90
2022/12/02 07:01:47;;;;;;;;;;;8.20;59.80;;;;;;4992655;28;19929;-89
2022/12/02 07:04:31;;;;;;;;;;;8.20;60.00;;;;;;4991560;28;19925;-87
2022/12/02 07:06:59;;;;;;;;;;;8.20;59.90;;;;;;5001272;28;20288;-86
2022/12/02 07:09:27;;;;;;;;;;;8.20;60.20;;;;;;4984149;28;20415;-88
2022/12/02 07:11:54;;;;;;;;;;;8.20;60.00;;;;;;5010260;28;19918;-86
2022/12/02 07:14:24;;;;;;;;;;;8.20;60.00;;;;;;4992857;28;20375;-89
2022/12/02 07:16:50;;;;;;;;;;;8.20;60.00;;;;;;5010899;28;19967;-89
2022/12/02 07:19:19;;;;;;;;;;;8.20;60.00;;;;;;5008925;28;19922;-88
2022/12/02 07:21:44;;;;;;;;;;;8.20;60.20;;;;;;4992020;28;19914;-88
2022/12/02 07:24:12;;;;;;;;;;;8.20;60.20;;;;;;4980885;28;19958;-88
2022/12/02 07:26:38;;;;;;;;;;;8.20;60.00;;;;;;4991042;28;19917;-87
2022/12/02 07:29:04;;;;;;;;;;;8.20;59.70;;;;;;5001861;28;19977;-86
2022/12/02 07:31:30;;;;;;;;;;;8.20;59.60;;;;;;4980923;28;19920;-87
2022/12/02 07:33:56;;;;;;;;;;;8.20;59.80;;;;;;4999207;28;20391;-87
2022/12/02 07:36:21;;;;;;;;;;;8.20;59.80;;;;;;4992375;28;19918;-88
2022/12/02 07:38:47;;;;;;;;;;;8.20;59.80;;;;;;5004870;28;19925;-86
2022/12/02 07:41:13;;;;;;;;;;;8.20;59.90;;;;;;4991636;28;19953;-88
2022/12/02 07:43:41;;;;;;;;;;;8.30;59.80;;;;;;5002064;28;19996;-89
2022/12/02 07:46:07;;;;;;;;;;;8.30;59.90;;;;;;4988190;28;20340;-88
2022/12/02 07:48:32;;;;;;;;;;;8.30;59.90;;;;;;4999538;28;20350;-89
2022/12/02 07:50:58;;;;;;;;;;;8.30;59.80;;;;;;5019792;28;19918;-89
2022/12/02 07:53:23;;;;;;;;;;;8.30;59.40;;;;;;5020906;28;20372;-89
2022/12/02 07:55:49;;;;;;;;;;;8.30;59.60;;;;;;5030141;28;19913;-88
2022/12/02 07:58:14;;;;;;;;;;;8.30;59.60;;;;;;5011834;28;19944;-89
2022/12/02 08:00:42;;;;;;;;;;;8.40;59.70;;;;;;5011009;28;20433;-90
2022/12/02 08:03:07;;;;;;;;;;;8.40;59.40;;;;;;4990103;28;20420;-88
2022/12/02 08:05:33;;;;;;;;;;;8.40;59.40;;;;;;5003760;28;19955;-88
2022/12/02 08:07:58;;;;;;;;;;;8.40;59.50;;;;;;5012026;28;19921;-87
2022/12/02 08:10:24;;;;;;;;;;;8.40;59.50;;;;;;4994054;28;19947;-87
2022/12/02 08:12:50;;;;;;;;;;;8.40;59.50;;;;;;4991475;28;19929;-89
2022/12/02 08:15:15;;;;;;;;;;;8.40;59.40;;;;;;5005245;28;20362;-87
2022/12/02 08:17:41;;;;;;;;;;;8.50;59.60;;;;;;4990092;28;19921;-89
2022/12/02 08:20:08;;;;;;;;;;;8.50;59.70;;;;;;4988998;28;19921;-88
2022/12/02 08:22:33;;;;;;;;;;;8.60;59.80;;;;;;4994786;28;20376;-88
2022/12/02 08:24:59;;;;;;;;;;;8.60;59.90;;;;;;5019846;28;20279;-88
2022/12/02 08:27:24;;;;;;;;;;;8.70;59.70;;;;;;5012365;28;19928;-87
2022/12/02 08:29:52;;;;;;;;;;;8.70;59.60;;;;;;5001625;28;19925;-89
2022/12/02 08:32:19;;;;;;;;;;;8.70;59.70;;;;;;4988625;28;19924;-87
2022/12/02 08:34:44;;;;;;;;;;;8.70;59.60;;;;;;4987673;28;20035;-88
2022/12/02 08:37:10;;;;;;;;;;;8.70;59.50;;;;;;5017686;28;20449;-88
2022/12/02 08:39:36;;;;;;;;;;;8.70;59.60;;;;;;4981524;28;19921;-89
2022/12/02 08:42:01;;;;;;;;;;;8.70;59.20;;;;;;5008689;28;19917;-88
2022/12/02 08:44:27;;;;;;;;;;;8.80;59.40;;;;;;5008168;28;20024;-89
2022/12/02 08:46:53;;;;;;;;;;;8.80;59.60;;;;;;4997602;28;19924;-88
2022/12/02 08:49:18;;;;;;;;;;;8.80;59.50;;;;;;4971759;28;19965;-88
2022/12/02 08:51:44;;;;;;;;;;;8.80;59.40;;;;;;4971485;28;19926;-89
2022/12/02 08:54:09;;;;;;;;;;;8.90;59.40;;;;;;4980047;28;19929;-89
2022/12/02 08:56:37;;;;;;;;;;;8.90;59.40;;;;;;4994127;28;22316;-89
2022/12/02 08:59:03;;;;;;;;;;;8.90;59.00;;;;;;4988271;28;20406;-88
2022/12/02 09:01:28;;;;;;;;;;;8.90;59.10;;;;;;5004217;28;19917;-89
2022/12/02 09:03:57;;;;;;;;;;;8.90;59.10;;;;;;4991141;28;20053;-89
2022/12/02 09:06:22;;;;;;;;;;;9.00;58.90;;;;;;4999500;28;19957;-89
2022/12/02 09:08:48;;;;;;;;;;;8.90;59.00;;;;;;4985289;28;20484;-87
2022/12/02 09:11:14;;;;;;;;;;;9.00;59.20;;;;;;4971551;28;20012;-87
2022/12/02 09:13:39;;;;;;;;;;;9.00;59.20;;;;;;4970982;28;20402;-87
2022/12/02 09:16:05;;;;;;;;;;;9.00;58.80;;;;;;4971029;28;19928;-87
2022/12/02 09:18:30;;;;;;;;;;;9.00;58.70;;;;;;4981548;28;19921;-87
2022/12/02 09:20:56;;;;;;;;;;;9.10;59.10;;;;;;4971434;28;19918;-88
2022/12/02 09:23:21;;;;;;;;;;;9.10;59.20;;;;;;4991158;28;20037;-88
2022/12/02 09:25:47;;;;;;;;;;;9.20;59.10;;;;;;4987396;28;19930;-89
2022/12/02 09:28:12;;;;;;;;;;;9.20;58.90;;;;;;4991547;28;19917;-90
2022/12/02 09:30:38;;;;;;;;;;;9.20;58.90;;;;;;5008928;28;19925;-87
2022/12/02 09:33:04;;;;;;;;;;;9.20;58.60;;;;;;4989510;28;20492;-87
2022/12/02 09:35:29;;;;;;;;;;;9.20;58.80;;;;;;4985920;28;19921;-87
2022/12/02 09:37:55;;;;;;;;;;;9.20;58.40;;;;;;5009073;28;19944;-87
2022/12/02 09:40:21;;;;;;;;;;;9.20;58.00;;;;;;5004219;28;19921;-87
2022/12/02 09:42:46;;;;;;;;;;;9.20;58.40;;;;;;5027665;28;20185;-86
2022/12/02 09:45:12;;;;;;;;;;;9.20;58.50;;;;;;5007304;28;19914;-87
2022/12/02 09:47:38;;;;;;;;;;;9.30;58.20;;;;;;4977139;28;19928;-87
2022/12/02 09:50:04;;;;;;;;;;;9.20;58.40;;;;;;4989956;28;19922;-88
2022/12/02 09:52:30;;;;;;;;;;;9.30;58.50;;;;;;5006441;28;19917;-86
2022/12/02 09:54:59;;;;;;;;;;;9.30;58.30;;;;;;5007452;28;19959;-87
2022/12/02 09:57:27;;;;;;;;;;;9.30;58.20;;;;;;5008260;28;19921;-88
2022/12/02 09:59:53;;;;;;;;;;;9.30;58.50;;;;;;4990099;28;20469;-88
2022/12/02 10:02:22;;;;;;;;;;;9.30;57.80;;;;;;4996954;28;20359;-88
2022/12/02 10:04:47;;;;;;;;;;;9.30;58.10;;;;;;4992996;28;19980;-88
2022/12/02 10:07:13;;;;;;;;;;;9.30;57.80;;;;;;5006736;28;20032;-87
2022/12/02 10:09:39;;;;;;;;;;;9.20;57.50;;;;;;5006609;28;19921;-87
2022/12/02 10:12:06;;;;;;;;;;;9.30;57.00;;;;;;4986369;28;19925;-87
2022/12/02 10:14:32;;;;;;;;;;;9.20;57.10;;;;;;5007011;28;20336;-88
2022/12/02 10:16:58;;;;;;;;;;;9.20;57.10;;;;;;5006587;28;20450;-87
2022/12/02 10:19:23;;;;;;;;;;;9.10;57.00;;;;;;4985357;28;19963;-87
2022/12/02 10:21:50;;;;;;;;;;;9.10;57.10;;;;;;5006269;28;20229;-87
2022/12/02 10:24:15;;;;;;;;;;;9.10;57.30;;;;;;4988749;28;19914;-89
2022/12/02 10:26:43;;;;;;;;;;;9.10;57.50;;;;;;5005778;28;19975;-88
2022/12/02 10:29:13;;;;;;;;;;;9.20;57.50;;;;;;4988033;28;19922;-88
2022/12/02 10:31:48;;;;;;;;;;;9.20;57.60;;;;;;4990019;28;19918;-87
2022/12/02 10:34:18;;;;;;;;;;;9.30;57.90;;;;;;4981437;28;19929;-88
2022/12/02 10:36:44;;;;;;;;;;;9.30;57.80;;;;;;4988185;28;19968;-89
2022/12/02 10:39:15;;;;;;;;;;;9.40;57.90;;;;;;4998313;28;20292;-88
2022/12/02 10:41:41;;;;;;;;;;;9.40;57.50;;;;;;4985392;28;20380;-88
2022/12/02 10:44:14;;;;;;;;;;;9.40;57.50;;;;;;4995830;28;20004;-88
2022/12/02 10:46:40;;;;;;;;;;;9.40;57.50;;;;;;4980998;28;19922;-87
2022/12/02 10:49:14;;;;;;;;;;;9.50;57.20;;;;;;4995796;28;19917;-89
2022/12/02 10:51:40;;;;;;;;;;;9.40;57.10;;;;;;5000788;28;20011;-88
2022/12/02 10:54:12;;;;;;;;;;;9.50;57.50;;;;;;4996238;28;20598;-89
2022/12/02 10:56:37;;;;;;;;;;;9.50;57.70;;;;;;4985762;28;20439;-89
2022/12/02 10:59:04;;;;;;;;;;;9.60;57.70;;;;;;5010197;28;19947;-89
2022/12/02 11:01:30;;;;;;;;;;;9.60;57.50;;;;;;5009726;28;19929;-88
2022/12/02 11:03:55;;;;;;;;;;;9.60;57.00;;;;;;5004722;28;20436;-88
2022/12/02 11:06:21;;;;;;;;;;;9.70;57.20;;;;;;4999548;28;20016;-91
2022/12/02 11:08:47;;;;;;;;;;;9.70;56.40;;;;;;4990125;28;19922;-89
2022/12/02 11:11:22;;;;;;;;;;;9.70;56.60;;;;;;4993154;28;20380;-88
2022/12/02 11:13:50;;;;;;;;;;;9.70;57.10;;;;;;4993494;28;20028;-88
2022/12/02 11:16:28;;;;;;;;;;;9.70;56.70;;;;;;4999069;28;19975;-90
2022/12/02 11:18:57;;;;;;;;;;;9.60;56.30;;;;;;5012448;28;19917;-89
2022/12/02 11:21:26;;;;;;;;;;;9.50;55.80;;;;;;5002008;28;20299;-88
2022/12/02 11:24:10;;;;;;;;;;;9.50;56.40;;;;;;5005644;28;20492;-88
2022/12/02 11:26:54;;;;;;;;;;;9.40;56.70;;;;;;5006424;28;19948;-87
2022/12/02 11:29:20;;;;;;;;;;;9.40;57.10;;;;;;5000752;28;19918;-89
2022/12/02 11:32:04;;;;;;;;;;;9.40;56.70;;;;;;5002221;28;19957;-90
2022/12/02 11:34:41;;;;;;;;;;;9.40;56.70;;;;;;5009795;28;19937;-88
2022/12/02 11:37:25;;;;;;;;;;;9.40;56.10;;;;;;5002644;28;19933;-89
2022/12/02 11:39:51;;;;;;;;;;;9.30;56.50;;;;;;5002737;28;19917;-88
2022/12/02 11:42:18;;;;;;;;;;;9.30;56.60;;;;;;5004040;28;19929;-88
2022/12/02 11:44:43;;;;;;;;;;;9.30;56.90;;;;;;4993419;28;19922;-88
2022/12/02 11:47:21;;;;;;;;;;;9.30;57.20;;;;;;5005654;28;19917;-88
2022/12/02 11:49:49;;;;;;;;;;;9.40;56.20;;;;;;4987396;28;19922;-89
2022/12/02 11:52:17;;;;;;;;;;;9.30;56.10;;;;;;4994155;28;20291;-88
2022/12/02 11:54:45;;;;;;;;;;;9.20;55.70;;;;;;4987908;28;19929;-88
2022/12/02 11:57:19;;;;;;;;;;;9.20;56.00;;;;;;5016489;28;19923;-88
2022/12/02 11:59:44;;;;;;;;;;;9.30;56.30;;;;;;5015896;28;19944;-88
2022/12/02 12:02:12;;;;;;;;;;;9.20;55.70;;;;;;5018292;28;20313;-89
2022/12/02 12:04:37;;;;;;;;;;;9.20;55.70;;;;;;5006858;28;19972;-88
2022/12/02 12:07:03;;;;;;;;;;;9.20;55.20;;;;;;5012016;28;19983;-89
2022/12/02 12:09:29;;;;;;;;;;;9.20;55.70;;;;;;5007102;28;20277;-89
2022/12/02 12:12:14;;;;;;;;;;;9.30;56.20;;;;;;4999622;28;20069;-87
2022/12/02 12:14:55;;;;;;;;;;;9.20;55.60;;;;;;5019778;28;19984;-88
2022/12/02 12:17:29;;;;;;;;;;;9.20;56.10;;;;;;4996440;28;19916;-89
2022/12/02 12:19:54;;;;;;;;;;;9.20;56.30;;;;;;5014525;28;19921;-90
2022/12/02 12:22:27;;;;;;;;;;;9.30;56.40;;;;;;5021487;28;20457;-88
2022/12/02 12:24:52;;;;;;;;;;;9.20;55.80;;;;;;5012308;28;19946;-88
2022/12/02 12:27:31;;;;;;;;;;;9.20;56.20;;;;;;5005329;28;20317;-88
2022/12/02 12:29:57;;;;;;;;;;;9.20;56.70;;;;;;4996972;28;19922;-88
2022/12/02 12:32:22;;;;;;;;;;;9.20;56.30;;;;;;5016389;28;20387;-88
2022/12/02 12:34:48;;;;;;;;;;;9.20;56.40;;;;;;5010470;28;19932;-89
2022/12/02 12:37:13;;;;;;;;;;;9.10;56.30;;;;;;5005740;28;19918;-89
2022/12/02 12:39:39;;;;;;;;;;;9.10;55.80;;;;;;4993589;28;20368;-87
2022/12/02 12:42:04;;;;;;;;;;;9.10;56.30;;;;;;4998464;28;19918;-87
2022/12/02 12:44:30;;;;;;;;;;;9.10;56.30;;;;;;5017907;28;20008;-88
2022/12/02 12:46:58;;;;;;;;;;;9.10;56.00;;;;;;5024558;28;19917;-90
2022/12/02 12:49:24;;;;;;;;;;;9.10;55.80;;;;;;4994079;28;19917;-88
2022/12/02 12:51:49;;;;;;;;;;;9.00;56.00;;;;;;4991035;28;20451;-87
2022/12/02 12:54:15;;;;;;;;;;;9.00;56.10;;;;;;5003115;28;19983;-88
2022/12/02 12:56:40;;;;;;;;;;;9.00;56.20;;;;;;5008036;28;19930;-91
2022/12/02 12:59:06;;;;;;;;;;;9.00;56.30;;;;;;4997128;28;19918;-88
2022/12/02 13:01:31;;;;;;;;;;;9.00;56.50;;;;;;4983693;28;19937;-88
2022/12/02 13:03:57;;;;;;;;;;;9.00;56.60;;;;;;5014913;28;19922;-90
2022/12/02 13:06:22;;;;;;;;;;;9.00;56.30;;;;;;5003729;28;20544;-88
2022/12/02 13:08:48;;;;;;;;;;;9.00;56.60;;;;;;4998091;28;20556;-88
2022/12/02 13:11:13;;;;;;;;;;;9.00;56.60;;;;;;4994449;28;19921;-86
2022/12/02 13:13:39;;;;;;;;;;;9.00;56.50;;;;;;5007069;28;19934;-89
2022/12/02 13:16:04;;;;;;;;;;;8.90;56.80;;;;;;5015450;28;19921;-90
2022/12/02 13:18:30;;;;;;;;;;;9.00;56.90;;;;;;5000545;28;19964;-91
2022/12/02 13:20:56;;;;;;;;;;;9.00;56.10;;;;;;4993489;28;19928;-89
2022/12/02 13:23:21;;;;;;;;;;;8.90;56.20;;;;;;4989303;28;20273;-88
2022/12/02 13:25:47;;;;;;;;;;;8.80;56.20;;;;;;4991035;28;19921;-87
2022/12/02 13:28:12;;;;;;;;;;;8.90;56.60;;;;;;5010446;28;19917;-88
2022/12/02 13:30:38;;;;;;;;;;;8.90;56.90;;;;;;4993508;28;20398;-90
2022/12/02 13:33:03;;;;;;;;;;;8.90;57.10;;;;;;4988177;28;19975;-90
2022/12/02 13:35:29;;;;;;;;;;;8.90;57.00;;;;;;4981995;28;19922;-90
2022/12/02 13:37:55;;;;;;;;;;;9.00;57.10;;;;;;4999244;28;20679;-90
2022/12/02 13:40:23;;;;;;;;;;;8.90;56.80;;;;;;4982990;28;19917;-88
2022/12/02 13:42:49;;;;;;;;;;;8.90;56.80;;;;;;4981570;28;19921;-89
2022/12/02 13:45:14;;;;;;;;;;;8.80;56.50;;;;;;4998113;28;19925;-90
2022/12/02 13:47:40;;;;;;;;;;;8.80;56.50;;;;;;5003091;28;20293;-90
2022/12/02 13:50:06;;;;;;;;;;;8.80;56.60;;;;;;5005832;28;19922;-88
2022/12/02 13:52:34;;;;;;;;;;;8.70;56.80;;;;;;4992244;28;20071;-88
2022/12/02 13:55:00;;;;;;;;;;;8.70;56.80;;;;;;5012281;28;19921;-89
2022/12/02 13:57:25;;;;;;;;;;;8.70;56.90;;;;;;5013076;28;19964;-88
2022/12/02 13:59:51;;;;;;;;;;;8.60;57.30;;;;;;5006395;28;19948;-88
2022/12/02 14:02:16;;;;;;;;;;;8.60;57.30;;;;;;5002711;28;19918;-88
2022/12/02 14:04:42;;;;;;;;;;;8.60;57.00;;;;;;4994861;28;19925;-88
2022/12/02 14:07:07;;;;;;;;;;;8.50;57.10;;;;;;4996191;28;19921;-88
2022/12/02 14:09:33;;;;;;;;;;;8.50;57.40;;;;;;4990616;28;19926;-87
2022/12/02 14:11:58;;;;;;;;;;;8.60;57.40;;;;;;4987699;28;20418;-88
2022/12/02 14:14:24;;;;;;;;;;;8.50;57.20;;;;;;4989587;28;19936;-87
2022/12/02 14:16:49;;;;;;;;;;;8.60;57.60;;;;;;4996047;28;19921;-88
2022/12/02 14:19:15;;;;;;;;;;;8.60;57.60;;;;;;5012607;28;19922;-90
2022/12/02 14:21:40;;;;;;;;;;;8.50;57.30;;;;;;4996065;28;19918;-89
2022/12/02 14:24:06;;;;;;;;;;;8.50;57.10;;;;;;5014079;28;19952;-89
2022/12/02 14:26:31;;;;;;;;;;;8.50;57.30;;;;;;4997501;28;19924;-87
2022/12/02 14:28:57;;;;;;;;;;;8.50;57.10;;;;;;5015529;28;19972;-87
2022/12/02 14:31:22;;;;;;;;;;;8.40;57.10;;;;;;4995921;28;19921;-88
2022/12/02 14:33:48;;;;;;;;;;;8.40;56.90;;;;;;5015410;28;19969;-88